»·PEaware :: DAL936 KBOI-KSLC

DAL936 :: KBOI-KSLC

FLIGHT INFORMATION

Flight Status: Arrived
Operator:
Delta Air Lines
More flights by this operator :: More flights under this callsign
Pilot: Dave P. (45)
Aircraft: BOEING 737-600
(B736)
More flights by this aircraft type
Origin: KBOI Boise Air Terminal/Gowen
United States
Destination: KSLC Salt Lake City Intl
United States
More flights between these airports :: More routes between these airports
Route: BOI3 BOI ROARR BYI SKEES5
File this flight plan on PilotEdge
Remarks:
Altitude:
(Current/Filed)
23,000ft
Speed:
(Current/Filed)
429kts
Departed: 10-Jun-23 08:04 AM
Arrived: 10-Jun-23 08:48 AM
Distance/Time
Traveled:
251nm/0:43
Distance/Time
To Go:
Arrived

Flight Plot

Page will automatically refresh every two minutes.

Flight plan parsing failed; only flown route is shown


Map Options




Map Legend


Flown Route
Filed Route
Departure Airport
Arrival Airport
Navaid (VOR, NDB)
Fix

Horizontal Profiles

Position Reports

Time Latitude Longitude Heading Altitude Ground
Speed
10-Jun-23 07:02 43.566819 -116.219211 25 2849ft 0kts
10-Jun-23 07:03 43.566819 -116.219211 25 2849ft 0kts
10-Jun-23 07:04 43.566819 -116.219211 25 2849ft 0kts
10-Jun-23 07:05 43.566819 -116.219211 25 2849ft 0kts
10-Jun-23 07:06 43.566819 -116.219211 25 2849ft 0kts
10-Jun-23 07:07 43.566819 -116.219211 25 2849ft 0kts
10-Jun-23 07:08 43.566819 -116.219211 25 2840ft 0kts
10-Jun-23 07:09 43.566819 -116.219211 25 2840ft 0kts
10-Jun-23 07:10 43.566819 -116.219211 25 2840ft 0kts
10-Jun-23 07:11 43.566819 -116.219211 25 2840ft 0kts
10-Jun-23 07:12 43.566819 -116.219211 25 2840ft 0kts
10-Jun-23 07:13 43.566819 -116.219211 25 2840ft 0kts
10-Jun-23 07:14 43.566819 -116.219211 25 2840ft 0kts
10-Jun-23 07:15 43.566819 -116.219211 25 2840ft 0kts
10-Jun-23 07:16 43.566819 -116.219211 25 2840ft 0kts
10-Jun-23 07:17 43.566819 -116.219211 25 2840ft 0kts
10-Jun-23 07:18 43.566819 -116.219211 25 2840ft 0kts
10-Jun-23 07:19 43.566819 -116.219211 25 2840ft 0kts
10-Jun-23 07:20 43.566819 -116.219211 25 2840ft 0kts
10-Jun-23 07:21 43.566819 -116.219211 25 2840ft 0kts
10-Jun-23 07:22 43.566819 -116.219211 25 2840ft 0kts
10-Jun-23 07:23 43.566819 -116.219211 25 2840ft 0kts
10-Jun-23 07:24 43.566819 -116.219211 25 2849ft 0kts
10-Jun-23 07:25 43.566819 -116.219211 25 2849ft 0kts
10-Jun-23 07:26 43.566819 -116.219211 25 2849ft 0kts
10-Jun-23 07:27 43.566819 -116.219211 25 2849ft 0kts
10-Jun-23 07:28 43.566819 -116.219211 25 2849ft 0kts
10-Jun-23 07:29 43.566819 -116.219211 25 2849ft 0kts
10-Jun-23 07:30 43.566819 -116.219211 25 2849ft 0kts
10-Jun-23 07:31 43.566819 -116.219211 25 2849ft 0kts
10-Jun-23 07:32 43.566819 -116.219211 25 2849ft 0kts
10-Jun-23 07:33 43.566819 -116.219211 25 2849ft 0kts
10-Jun-23 07:34 43.566819 -116.219211 25 2849ft 0kts
10-Jun-23 07:35 43.566819 -116.219211 25 2849ft 0kts
10-Jun-23 07:36 43.566819 -116.219211 25 2849ft 0kts
10-Jun-23 07:37 43.566819 -116.219211 25 2849ft 0kts
10-Jun-23 07:38 43.566819 -116.219211 25 2849ft 0kts
10-Jun-23 07:39 43.566819 -116.219211 25 2849ft 0kts
10-Jun-23 07:40 43.566819 -116.219211 25 2849ft 0kts
10-Jun-23 07:41 43.566819 -116.219211 25 2849ft 0kts
10-Jun-23 07:42 43.566819 -116.219211 25 2849ft 0kts
10-Jun-23 07:43 43.566819 -116.219211 25 2849ft 0kts
10-Jun-23 07:44 43.566819 -116.219211 25 2849ft 0kts
10-Jun-23 07:45 43.566819 -116.219211 25 2849ft 0kts
10-Jun-23 07:46 43.566819 -116.219211 25 2849ft 0kts
10-Jun-23 07:47 43.566819 -116.219211 25 2849ft 0kts
10-Jun-23 07:48 43.566819 -116.219211 25 2849ft 0kts
10-Jun-23 07:49 43.566819 -116.219211 25 2849ft 0kts
10-Jun-23 07:50 43.566819 -116.219211 25 2849ft 0kts
10-Jun-23 07:51 43.566819 -116.219211 25 2849ft 0kts
10-Jun-23 07:52 43.566819 -116.219211 25 2849ft 0kts
10-Jun-23 07:53 43.566819 -116.219211 25 2849ft 0kts
10-Jun-23 07:54 43.566819 -116.219211 25 2849ft 0kts
10-Jun-23 07:55 43.566819 -116.219211 25 2849ft 0kts
10-Jun-23 07:56 43.566486 -116.219435 25 2847ft 2kts
10-Jun-23 07:57 43.566315 -116.219268 295 2847ft 0kts
10-Jun-23 07:58 43.566315 -116.219268 295 2847ft 0kts
10-Jun-23 07:59 43.566420 -116.220428 255 2847ft 11kts
10-Jun-23 08:00 43.567786 -116.226259 294 2848ft 20kts
10-Jun-23 08:01 43.570309 -116.233670 294 2848ft 22kts
10-Jun-23 08:02 43.570938 -116.236290 221 2844ft 5kts
10-Jun-23 08:03 43.567392 -116.228655 115 2845ft 118kts
10-Jun-23 08:04 43.547082 -116.167115 114 5331ft 213kts
10-Jun-23 08:05 43.516470 -116.077497 115 7799ft 280kts
10-Jun-23 08:06 43.482956 -115.973632 113 10849ft 336kts
10-Jun-23 08:07 43.444019 -115.848751 113 13959ft 367kts
10-Jun-23 08:08 43.402465 -115.716871 113 17114ft 383kts
10-Jun-23 08:09 43.358992 -115.579700 113 20030ft 398kts
10-Jun-23 08:10 43.313756 -115.437640 113 22685ft 412kts
10-Jun-23 08:11 43.259860 -115.297029 123 23016ft 418kts
10-Jun-23 08:12 43.196444 -115.163001 122 23022ft 419kts
10-Jun-23 08:13 43.133770 -115.028807 122 23046ft 416kts
10-Jun-23 08:14 43.071500 -114.895666 122 23100ft 415kts
10-Jun-23 08:15 43.009096 -114.762863 123 23133ft 415kts
10-Jun-23 08:16 42.946682 -114.630640 123 23139ft 415kts
10-Jun-23 08:17 42.883903 -114.498239 123 23096ft 415kts
10-Jun-23 08:18 42.821099 -114.366355 123 23115ft 414kts
10-Jun-23 08:19 42.758293 -114.235066 123 23093ft 413kts
10-Jun-23 08:20 42.695679 -114.104735 123 23048ft 412kts
10-Jun-23 08:21 42.632743 -113.974281 123 23081ft 412kts
10-Jun-23 08:22 42.567803 -113.846295 134 23100ft 411kts
10-Jun-23 08:23 42.485720 -113.738496 136 23113ft 411kts
10-Jun-23 08:24 42.404435 -113.630485 136 23066ft 410kts
10-Jun-23 08:25 42.323363 -113.522458 136 23031ft 408kts
10-Jun-23 08:26 42.242202 -113.414848 136 22998ft 408kts
10-Jun-23 08:27 42.161096 -113.307739 136 22989ft 408kts
10-Jun-23 08:28 42.079834 -113.200783 136 22985ft 408kts
10-Jun-23 08:29 41.998794 -113.094517 136 22982ft 408kts
10-Jun-23 08:30 41.917430 -112.988220 137 22965ft 407kts
10-Jun-23 08:31 41.836762 -112.883206 137 22937ft 393kts
10-Jun-23 08:32 41.758016 -112.781087 137 22208ft 393kts
10-Jun-23 08:33 41.681512 -112.682205 137 20140ft 375kts
10-Jun-23 08:34 41.607482 -112.586908 137 18102ft 365kts
10-Jun-23 08:35 41.535386 -112.494362 138 16093ft 353kts
10-Jun-23 08:36 41.459279 -112.415520 135 15206ft 353kts
10-Jun-23 08:37 41.395434 -112.317627 133 14277ft 346kts
10-Jun-23 08:38 41.331614 -112.222949 134 13383ft 341kts
10-Jun-23 08:39 41.267723 -112.129465 134 12401ft 343kts
10-Jun-23 08:40 41.203162 -112.036662 141 11245ft 338kts
10-Jun-23 08:41 41.116403 -112.012613 176 11064ft 306kts
10-Jun-23 08:42 41.037603 -112.003633 175 9836ft 277kts
10-Jun-23 08:43 40.962284 -111.994913 175 7880ft 270kts
10-Jun-23 08:44 40.888159 -111.985067 175 6003ft 255kts
10-Jun-23 08:45 40.828089 -111.979177 176 4809ft 193kts
10-Jun-23 08:46 40.788695 -111.974776 174 4239ft 47kts
10-Jun-23 08:47 40.785186 -111.976533 355 4238ft 9kts
10-Jun-23 08:48 40.790012 -111.977075 355 4238ft 15kts
10-Jun-23 08:49 40.791934 -111.979883 264 4238ft 20kts
10-Jun-23 08:50 40.791446 -111.987174 264 4238ft 17kts
10-Jun-23 08:51 40.790159 -111.989121 128 4237ft 3kts
10-Jun-23 08:52 40.789392 -111.988927 173 4238ft 0kts
10-Jun-23 08:53 40.789392 -111.988927 173 4238ft 0kts
10-Jun-23 08:54 40.789392 -111.988927 173 4238ft 0kts
10-Jun-23 08:55 40.789392 -111.988927 173 4238ft 0kts

Navigation Log

Ident Type
Flight plan parsing failed, navigation log unavailable